createdAt,value
2023-01-25T00:00:40.991Z,7.67
2023-01-25T00:03:31.023Z,8.63
2023-01-25T00:06:17.409Z,7.93
2023-01-25T00:09:04.743Z,8.30
2023-01-25T00:11:53.002Z,8.23
2023-01-25T00:14:39.639Z,9.30
2023-01-25T00:17:27.392Z,9.70
2023-01-25T00:20:16.012Z,8.67
2023-01-25T00:23:02.633Z,7.87
2023-01-25T00:25:49.528Z,7.57
2023-01-25T00:28:36.436Z,9.47
2023-01-25T00:31:33.842Z,7.70
2023-01-25T00:34:54.057Z,8.23
2023-01-25T00:37:47.599Z,7.63
2023-01-25T00:40:34.293Z,8.57
2023-01-25T00:43:20.946Z,7.73
2023-01-25T00:46:07.533Z,8.37
2023-01-25T00:48:55.629Z,8.30
2023-01-25T00:51:42.107Z,8.63
2023-01-25T00:54:30.330Z,7.63
2023-01-25T00:57:17.061Z,7.13
2023-01-25T01:00:03.834Z,8.23
2023-01-25T01:02:50.447Z,8.23
2023-01-25T01:05:37.889Z,8.53
2023-01-25T01:08:24.768Z,7.33
2023-01-25T01:11:13.963Z,8.67
2023-01-25T01:14:01.418Z,7.77
2023-01-25T01:16:48.703Z,8.60
2023-01-25T01:19:35.395Z,9.07
2023-01-25T01:22:22.029Z,8.50
2023-01-25T01:25:10.878Z,7.17
2023-01-25T01:27:58.776Z,8.37
2023-01-25T01:30:45.281Z,7.40
2023-01-25T01:33:33.398Z,7.97
2023-01-25T01:36:23.950Z,7.97
2023-01-25T01:39:10.866Z,7.63
2023-01-25T01:41:57.262Z,8.03
2023-01-25T01:44:49.505Z,7.00
2023-01-25T01:47:45.836Z,7.87
2023-01-25T01:50:32.758Z,7.90
2023-01-25T01:53:20.420Z,6.97
2023-01-25T01:56:12.073Z,6.67
2023-01-25T01:59:01.159Z,6.83
2023-01-25T02:01:49.094Z,8.10
2023-01-25T02:04:37.194Z,7.50
2023-01-25T02:07:33.333Z,7.43
2023-01-25T02:10:23.345Z,6.53
2023-01-25T02:13:10.077Z,6.63
2023-01-25T02:15:57.313Z,7.10
2023-01-25T02:18:45.177Z,7.93
2023-01-25T02:21:40.609Z,7.67
2023-01-25T02:24:33.555Z,7.57
2023-01-25T02:27:22.361Z,7.13
2023-01-25T02:30:11.036Z,6.40
2023-01-25T02:32:57.745Z,7.77
2023-01-25T02:35:48.225Z,6.90
2023-01-25T02:38:38.282Z,6.90
2023-01-25T02:41:32.473Z,7.20
2023-01-25T02:44:25.278Z,6.60
2023-01-25T02:47:12.036Z,6.50
2023-01-25T02:49:58.500Z,6.67
2023-01-25T02:52:44.995Z,6.33
2023-01-25T02:55:31.678Z,6.07
2023-01-25T02:58:18.474Z,6.47
2023-01-25T03:01:06.511Z,6.20
2023-01-25T03:03:53.286Z,6.83
2023-01-25T03:06:41.261Z,7.07
2023-01-25T03:09:27.676Z,6.63
2023-01-25T03:12:14.606Z,6.00
2023-01-25T03:15:01.420Z,6.63
2023-01-25T03:17:49.151Z,6.70
2023-01-25T03:20:35.668Z,7.37
2023-01-25T03:23:22.867Z,6.40
2023-01-25T03:26:12.680Z,7.50
2023-01-25T03:28:59.532Z,6.07
2023-01-25T03:31:46.254Z,6.07
2023-01-25T03:34:34.521Z,6.80
2023-01-25T03:37:20.942Z,6.13
2023-01-25T03:40:10.036Z,6.77
2023-01-25T03:42:56.863Z,6.33
2023-01-25T03:45:44.063Z,6.20
2023-01-25T03:48:31.616Z,6.30
2023-01-25T03:51:19.317Z,5.87
2023-01-25T03:54:08.190Z,7.13
2023-01-25T03:56:54.961Z,6.40
2023-01-25T03:59:41.591Z,7.67
2023-01-25T04:02:28.383Z,6.10
2023-01-25T04:05:16.223Z,6.30
2023-01-25T04:08:03.948Z,6.63
2023-01-25T04:10:54.336Z,6.63
2023-01-25T04:13:41.285Z,8.30
2023-01-25T04:16:30.423Z,8.47
2023-01-25T04:19:17.133Z,7.70
2023-01-25T04:22:03.832Z,6.67
2023-01-25T04:24:52.512Z,7.23
2023-01-25T04:27:39.373Z,7.73
2023-01-25T04:30:26.452Z,9.20
2023-01-25T04:33:13.158Z,6.90
2023-01-25T04:36:00.577Z,8.73
2023-01-25T04:38:46.993Z,7.30
2023-01-25T04:41:35.212Z,7.27
2023-01-25T04:44:21.976Z,7.43
2023-01-25T04:47:08.457Z,7.53
2023-01-25T04:49:55.305Z,7.40
2023-01-25T04:52:42.124Z,9.20
2023-01-25T04:55:29.500Z,8.70
2023-01-25T04:58:19.491Z,8.53
2023-01-25T05:01:07.307Z,8.23
2023-01-25T05:03:53.991Z,7.40
2023-01-25T05:06:40.649Z,8.67
2023-01-25T05:09:27.215Z,7.20
2023-01-25T05:12:13.859Z,6.53
2023-01-25T05:15:04.637Z,7.77
2023-01-25T05:17:51.925Z,7.83
2023-01-25T05:20:38.569Z,6.30
2023-01-25T05:23:25.231Z,7.20
2023-01-25T05:26:34.448Z,8.30
2023-01-25T05:29:21.465Z,6.40
2023-01-25T05:32:12.865Z,7.90
2023-01-25T05:35:00.994Z,7.67
2023-01-25T05:37:48.190Z,7.90
2023-01-25T05:40:35.180Z,7.97
2023-01-25T05:43:23.581Z,7.83
2023-01-25T05:46:10.537Z,8.20
2023-01-25T05:48:58.680Z,7.53
2023-01-25T05:51:46.053Z,7.87
2023-01-25T05:54:33.007Z,7.43
2023-01-25T05:57:19.724Z,6.87
2023-01-25T06:00:09.351Z,7.93
2023-01-25T06:02:56.891Z,7.87
2023-01-25T06:05:45.177Z,8.60
2023-01-25T06:08:33.383Z,8.07
2023-01-25T06:11:22.806Z,9.17
2023-01-25T06:14:09.455Z,7.67
2023-01-25T06:16:56.345Z,8.27
2023-01-25T06:19:43.178Z,10.30
2023-01-25T06:22:31.205Z,8.87
2023-01-25T06:25:18.096Z,9.87
2023-01-25T06:28:05.237Z,7.83
2023-01-25T06:30:52.122Z,7.77
2023-01-25T06:33:39.998Z,8.97
2023-01-25T06:36:26.805Z,8.77
2023-01-25T06:39:15.929Z,7.53
2023-01-25T06:42:02.962Z,9.57
2023-01-25T06:44:49.788Z,10.03
2023-01-25T06:47:36.795Z,10.07
2023-01-25T06:50:23.368Z,11.47
2023-01-25T06:53:10.150Z,10.37
2023-01-25T06:56:04.095Z,10.23
2023-01-25T06:58:51.436Z,10.40
2023-01-25T07:01:38.090Z,12.10
2023-01-25T07:04:24.948Z,11.20
2023-01-25T07:07:11.862Z,11.87
2023-01-25T07:10:00.448Z,13.07
2023-01-25T07:12:48.778Z,12.27
2023-01-25T07:15:35.307Z,12.03
2023-01-25T07:18:22.126Z,13.73
2023-01-25T07:21:12.671Z,13.50
2023-01-25T07:24:03.568Z,13.50
2023-01-25T07:26:50.264Z,14.13
2023-01-25T07:29:38.061Z,15.00
2023-01-25T07:32:24.960Z,15.50
2023-01-25T07:35:11.873Z,15.00
2023-01-25T07:37:58.484Z,14.97
2023-01-25T07:40:45.530Z,14.70
2023-01-25T07:43:32.984Z,15.70
2023-01-25T07:46:21.418Z,14.53
2023-01-25T07:49:07.982Z,17.13
2023-01-25T07:51:54.948Z,16.50
2023-01-25T07:54:41.952Z,14.83
2023-01-25T07:57:29.136Z,15.60
2023-01-25T08:00:16.446Z,14.83
2023-01-25T08:03:04.905Z,14.27
2023-01-25T08:05:51.660Z,15.17
2023-01-25T08:08:41.288Z,15.53
2023-01-25T08:11:31.068Z,15.07
2023-01-25T08:14:17.912Z,16.40
2023-01-25T08:17:04.810Z,17.00
2023-01-25T08:19:53.058Z,14.90
2023-01-25T08:22:40.010Z,16.37
2023-01-25T08:25:26.982Z,19.47
2023-01-25T08:28:13.931Z,16.40
2023-01-25T08:31:08.027Z,14.80
2023-01-25T08:33:56.022Z,14.17
2023-01-25T08:36:44.051Z,15.13
2023-01-25T08:39:30.770Z,15.67
2023-01-25T08:42:17.515Z,17.30
2023-01-25T08:45:05.249Z,18.60
2023-01-25T08:47:52.120Z,15.03
2023-01-25T08:50:38.898Z,14.03
2023-01-25T08:53:29.072Z,14.67
2023-01-25T08:56:17.879Z,14.07
2023-01-25T08:59:05.893Z,16.03
2023-01-25T09:01:52.717Z,17.33
2023-01-25T09:04:39.672Z,17.87
2023-01-25T09:07:26.416Z,16.23
2023-01-25T09:10:14.913Z,17.03
2023-01-25T09:13:01.841Z,16.37
2023-01-25T09:15:48.341Z,16.93
2023-01-25T09:18:38.654Z,16.10
2023-01-25T09:21:25.886Z,15.17
2023-01-25T09:24:12.635Z,14.50
2023-01-25T09:27:00.606Z,15.43
2023-01-25T09:30:00.946Z,14.77
2023-01-25T09:32:50.805Z,14.43
2023-01-25T09:35:37.888Z,15.83
2023-01-25T09:38:24.914Z,14.90
2023-01-25T09:41:36.701Z,14.60
2023-01-25T09:44:45.995Z,13.63
2023-01-25T09:47:46.219Z,15.30
2023-01-25T09:50:54.276Z,12.90
2023-01-25T09:53:43.969Z,15.00
2023-01-25T09:56:36.342Z,14.03
2023-01-25T09:59:30.634Z,13.13
2023-01-25T10:02:35.482Z,11.37
2023-01-25T10:05:28.097Z,10.83
2023-01-25T10:08:26.827Z,11.80
2023-01-25T10:11:22.649Z,10.57
2023-01-25T10:14:17.050Z,10.90
2023-01-25T10:17:14.472Z,11.97
2023-01-25T10:20:21.273Z,11.27
2023-01-25T10:24:01.018Z,9.57
2023-01-25T10:26:56.648Z,9.83
2023-01-25T10:29:44.044Z,10.27
2023-01-25T10:32:35.893Z,10.03
2023-01-25T10:35:36.136Z,10.07
2023-01-25T10:38:30.986Z,9.73
2023-01-25T10:41:28.815Z,8.30
2023-01-25T10:44:25.537Z,9.00
2023-01-25T10:47:23.034Z,10.70
2023-01-25T10:50:46.246Z,10.57
2023-01-25T10:53:35.923Z,10.30
2023-01-25T10:56:27.250Z,8.33
2023-01-25T10:59:24.059Z,10.37
2023-01-25T11:02:41.518Z,9.67
2023-01-25T11:05:34.881Z,9.43
2023-01-25T11:08:27.613Z,9.80
2023-01-25T11:11:30.087Z,10.13
2023-01-25T11:14:18.773Z,11.13
2023-01-25T11:17:07.230Z,10.17
2023-01-25T11:20:20.962Z,10.10
2023-01-25T11:23:24.891Z,10.47
2023-01-25T11:26:18.131Z,10.33
2023-01-25T11:29:14.756Z,9.37
2023-01-25T11:32:01.459Z,9.87
2023-01-25T11:34:49.703Z,10.87
2023-01-25T11:37:56.842Z,10.07
2023-01-25T11:40:51.546Z,8.53
2023-01-25T11:44:02.956Z,9.90
2023-01-25T11:47:04.251Z,11.40
2023-01-25T11:50:06.553Z,10.23
2023-01-25T11:53:50.084Z,11.90
2023-01-25T11:57:00.195Z,12.17
2023-01-25T12:00:17.418Z,10.40
2023-01-25T12:03:58.653Z,10.73
2023-01-25T12:07:12.210Z,11.17
2023-01-25T12:10:34.918Z,10.60
2023-01-25T12:13:42.659Z,10.83
2023-01-25T12:17:08.571Z,10.17
2023-01-25T12:20:33.035Z,9.70
2023-01-25T12:23:46.961Z,10.67
2023-01-25T12:26:56.084Z,10.67
2023-01-25T12:29:50.398Z,10.77
2023-01-25T12:32:47.037Z,11.13
2023-01-25T12:35:42.220Z,12.23
2023-01-25T12:38:39.283Z,11.77
2023-01-25T12:41:48.281Z,11.13
2023-01-25T12:44:43.216Z,10.43
2023-01-25T12:47:42.009Z,10.63
2023-01-25T12:50:56.001Z,10.43
2023-01-25T12:53:52.035Z,11.30
2023-01-25T12:56:50.527Z,10.83
2023-01-25T12:59:52.527Z,11.27
2023-01-25T13:03:03.410Z,13.20
2023-01-25T13:06:06.640Z,11.70
2023-01-25T13:09:04.665Z,11.87
2023-01-25T13:11:52.459Z,12.00
2023-01-25T13:14:42.405Z,13.07
2023-01-25T13:17:42.553Z,12.87
2023-01-25T13:20:58.007Z,14.17
2023-01-25T13:23:52.217Z,12.07
2023-01-25T13:27:13.905Z,13.93
2023-01-25T13:30:30.055Z,11.53
2023-01-25T13:33:37.780Z,12.07
2023-01-25T13:36:51.115Z,11.77
2023-01-25T13:39:46.733Z,12.07
2023-01-25T13:42:36.366Z,14.37
2023-01-25T13:45:30.347Z,13.90
2023-01-25T13:48:31.686Z,10.90
2023-01-25T13:51:36.154Z,12.93
2023-01-25T13:54:28.544Z,13.03
2023-01-25T13:57:29.471Z,11.53
2023-01-25T14:00:21.034Z,12.03
2023-01-25T14:03:18.946Z,11.70
2023-01-25T14:06:18.664Z,12.70
2023-01-25T14:09:16.974Z,13.03
2023-01-25T14:12:25.598Z,12.57
2023-01-25T14:15:24.603Z,13.93
2023-01-25T14:18:19.814Z,12.53
2023-01-25T14:21:16.945Z,13.40
2023-01-25T14:24:17.291Z,14.53
2023-01-25T14:27:17.519Z,14.07
2023-01-25T14:30:19.156Z,13.40
2023-01-25T14:33:21.848Z,14.83
2023-01-25T14:36:25.297Z,13.37
2023-01-25T14:39:36.174Z,12.93
2023-01-25T14:42:32.272Z,15.00
2023-01-25T14:45:21.958Z,13.80
2023-01-25T14:48:50.100Z,13.30
2023-01-25T14:51:53.289Z,13.53
2023-01-25T14:54:56.158Z,14.40
2023-01-25T14:57:52.804Z,13.73
2023-01-25T15:00:42.111Z,14.10
2023-01-25T15:03:42.721Z,14.27
2023-01-25T15:06:53.297Z,14.00
2023-01-25T15:09:43.612Z,14.17
2023-01-25T15:12:36.235Z,13.97
2023-01-25T15:15:30.969Z,15.03
2023-01-25T15:18:48.106Z,14.10
2023-01-25T15:22:02.052Z,13.60
2023-01-25T15:24:57.365Z,13.77
2023-01-25T15:27:49.763Z,15.13
2023-01-25T15:30:42.409Z,15.43
2023-01-25T15:33:48.979Z,15.30
2023-01-25T15:36:36.112Z,15.27
2023-01-25T15:39:41.020Z,15.87
2023-01-25T15:42:36.968Z,14.40
2023-01-25T15:45:37.746Z,16.13
2023-01-25T15:48:42.261Z,13.50
2023-01-25T15:51:49.014Z,14.67
2023-01-25T15:54:38.728Z,16.53
2023-01-25T15:57:40.200Z,16.57
2023-01-25T16:00:35.742Z,16.47
2023-01-25T16:03:29.339Z,15.30
2023-01-25T16:06:43.728Z,16.30
2023-01-25T16:09:57.954Z,14.83
2023-01-25T16:12:57.507Z,16.67
2023-01-25T16:16:01.601Z,16.83
2023-01-25T16:19:38.581Z,15.40
2023-01-25T16:22:36.423Z,15.87
2023-01-25T16:25:38.099Z,17.30
2023-01-25T16:28:32.107Z,18.00
2023-01-25T16:31:32.770Z,19.00
2023-01-25T16:34:35.807Z,14.90
2023-01-25T16:41:36.187Z,14.53
2023-01-25T16:44:23.184Z,16.63
2023-01-25T16:47:15.593Z,16.93
2023-01-25T16:50:03.482Z,17.07
2023-01-25T16:52:51.586Z,16.13
2023-01-25T16:55:38.789Z,15.30
2023-01-25T16:58:25.567Z,15.37
2023-01-25T17:01:13.967Z,18.03
2023-01-25T17:04:00.754Z,16.97
2023-01-25T17:06:52.875Z,18.27
2023-01-25T17:09:39.477Z,16.80
2023-01-25T17:12:26.922Z,17.10
2023-01-25T17:15:13.371Z,16.17
2023-01-25T17:17:59.955Z,18.17
2023-01-25T17:20:46.817Z,18.67
2023-01-25T17:23:37.849Z,16.60
2023-01-25T17:26:26.312Z,16.10
2023-01-25T17:29:13.620Z,14.83
2023-01-25T17:32:00.538Z,14.50
2023-01-25T17:34:47.184Z,16.10
2023-01-25T17:37:34.914Z,15.23
2023-01-25T17:40:22.914Z,12.23
2023-01-25T17:43:10.079Z,13.87
2023-01-25T17:45:56.769Z,13.57
2023-01-25T17:48:43.236Z,15.07
2023-01-25T17:51:31.032Z,14.87
2023-01-25T17:54:17.680Z,15.70
2023-01-25T17:57:05.772Z,13.23
2023-01-25T17:59:52.341Z,13.20
2023-01-25T18:02:39.185Z,14.43
2023-01-25T18:05:27.525Z,14.50
2023-01-25T18:08:14.299Z,13.67
2023-01-25T18:11:00.882Z,13.33
2023-01-25T18:13:52.310Z,16.80
2023-01-25T18:16:41.967Z,13.33
2023-01-25T18:19:31.113Z,11.20
2023-01-25T18:22:18.156Z,14.60
2023-01-25T18:25:08.842Z,15.07
2023-01-25T18:27:55.893Z,13.87
2023-01-25T18:30:53.475Z,14.97
2023-01-25T18:33:40.640Z,16.10
2023-01-25T18:36:27.364Z,14.60
2023-01-25T18:39:14.008Z,16.30
2023-01-25T18:42:00.625Z,14.40
2023-01-25T18:44:49.109Z,15.43
2023-01-25T18:47:37.220Z,16.00
2023-01-25T18:50:24.482Z,17.93
2023-01-25T18:53:11.314Z,17.50
2023-01-25T18:56:03.929Z,15.97
2023-01-25T18:58:51.118Z,12.60
2023-01-25T19:01:37.927Z,14.03
2023-01-25T19:04:27.355Z,14.70
2023-01-25T19:07:14.348Z,15.83
2023-01-25T19:10:00.888Z,16.17
2023-01-25T19:12:47.477Z,15.70
2023-01-25T19:15:34.232Z,15.10
2023-01-25T19:18:21.260Z,15.30
2023-01-25T19:21:11.152Z,14.63
2023-01-25T19:23:58.249Z,16.63
2023-01-25T19:26:44.997Z,15.77
2023-01-25T19:29:31.553Z,16.40
2023-01-25T19:32:18.143Z,16.87
2023-01-25T19:35:06.180Z,17.03
2023-01-25T19:37:53.950Z,15.30
2023-01-25T19:40:41.691Z,15.70
2023-01-25T19:43:28.428Z,14.07
2023-01-25T19:46:18.049Z,15.30
2023-01-25T19:49:07.941Z,16.13
2023-01-25T19:51:54.455Z,15.30
2023-01-25T19:54:42.459Z,14.20
2023-01-25T19:57:29.370Z,16.10
2023-01-25T20:00:16.950Z,15.00
2023-01-25T20:03:15.592Z,16.77
2023-01-25T20:06:05.043Z,15.00
2023-01-25T20:08:52.836Z,14.90
2023-01-25T20:11:42.200Z,16.10
2023-01-25T20:14:28.818Z,15.57
2023-01-25T20:17:15.298Z,17.43
2023-01-25T20:20:02.146Z,15.47
2023-01-25T20:22:49.693Z,14.27
2023-01-25T20:25:36.268Z,15.90
2023-01-25T20:28:24.750Z,14.90
2023-01-25T20:31:23.822Z,14.30
2023-01-25T20:34:14.847Z,15.73
2023-01-25T20:37:01.287Z,14.17
2023-01-25T20:39:48.098Z,14.13
2023-01-25T20:42:34.625Z,14.43
2023-01-25T20:45:22.710Z,15.73
2023-01-25T20:48:09.520Z,14.03
2023-01-25T20:51:02.435Z,13.70
2023-01-25T20:53:50.920Z,12.07
2023-01-25T20:56:37.877Z,13.30
2023-01-25T20:59:24.593Z,14.63
2023-01-25T21:02:12.828Z,12.93
2023-01-25T21:04:59.611Z,14.23
2023-01-25T21:07:46.320Z,13.77
2023-01-25T21:10:32.883Z,11.83
2023-01-25T21:13:20.804Z,13.27
2023-01-25T21:16:11.017Z,11.73
2023-01-25T21:19:04.642Z,11.63
2023-01-25T21:21:51.379Z,13.63
2023-01-25T21:24:37.912Z,14.30
2023-01-25T21:27:25.048Z,12.53
2023-01-25T21:30:15.546Z,13.57
2023-01-25T21:33:02.357Z,13.00
2023-01-25T21:35:54.357Z,14.43
2023-01-25T21:38:42.877Z,14.43
2023-01-25T21:41:33.368Z,14.50
2023-01-25T21:44:37.741Z,13.90
2023-01-25T21:47:30.389Z,14.47
2023-01-25T21:50:35.717Z,12.17
2023-01-25T21:53:24.009Z,12.50
2023-01-25T21:56:10.770Z,14.13
2023-01-25T21:58:57.490Z,12.87
2023-01-25T22:01:45.202Z,15.50
2023-01-25T22:04:35.744Z,16.17
2023-01-25T22:07:22.325Z,15.67
2023-01-25T22:10:12.466Z,15.23
2023-01-25T22:12:59.513Z,14.33
2023-01-25T22:15:46.231Z,14.97
2023-01-25T22:18:35.960Z,16.87
2023-01-25T22:21:25.002Z,14.93
2023-01-25T22:24:13.139Z,15.80
2023-01-25T22:27:27.747Z,16.43
2023-01-25T22:30:15.075Z,14.20
2023-01-25T22:33:01.809Z,16.93
2023-01-25T22:35:48.310Z,17.27
2023-01-25T22:38:34.856Z,15.57
2023-01-25T22:41:24.311Z,17.53
2023-01-25T22:44:14.411Z,14.70
2023-01-25T22:47:00.765Z,17.17
2023-01-25T22:49:47.295Z,17.13
2023-01-25T22:52:34.037Z,16.60
2023-01-25T22:55:20.492Z,16.70
2023-01-25T22:58:07.237Z,16.43
2023-01-25T23:00:55.435Z,14.13
2023-01-25T23:03:41.921Z,16.80
2023-01-25T23:06:31.629Z,15.67
2023-01-25T23:09:18.156Z,15.13
2023-01-25T23:12:05.298Z,13.30
2023-01-25T23:14:55.054Z,14.23
2023-01-25T23:18:01.241Z,14.83
2023-01-25T23:20:48.151Z,12.13
2023-01-25T23:23:34.828Z,12.17
2023-01-25T23:26:21.510Z,16.33
2023-01-25T23:29:15.508Z,17.07
2023-01-25T23:32:02.334Z,13.63
2023-01-25T23:34:53.215Z,13.60
2023-01-25T23:37:40.040Z,13.33
2023-01-25T23:40:26.781Z,15.87
2023-01-25T23:43:13.247Z,15.47
2023-01-25T23:45:59.874Z,14.00
2023-01-25T23:48:47.855Z,14.17
2023-01-25T23:51:35.829Z,15.90
2023-01-25T23:54:22.522Z,16.83
2023-01-25T23:57:09.438Z,13.57
2023-01-25T23:59:56.003Z,14.80
